Ontonagon, Michigan
Current Conditions -  °F | °C
As of 12:53 AM on Saturday 25 Oct 2014 (Local Time) from KCMX Reporting Station
Scattered Clouds Scattered Clouds  
Wind Chill: 59°   Ceiling: Unl
Heat Index: 59°   Visibility: 10mi
Dew Point: 48°   Wind: 16mph
Humidity: 67%   Direction: 250°WSW
Pressure: 29.65"   Gusts: 28mph
Location:  46.87°N, 89.31°W
Report Text: KCMX 250453Z AUTO 25014G24KT 10SM SCT120 15/09 A2965 RMK AO2 SLP042 T01500089 401940072
Loading
Personal Weather Stations






























Interactive Weather Map New forecast layout! Learn more

10-Day Weather Forecast

Advertisements
Track Severe Weather on mobile